createdAt,value
2023-06-24T00:00:58.522Z,1.05
2023-06-24T00:03:25.787Z,0.90
2023-06-24T00:05:53.067Z,1.10
2023-06-24T00:08:23.117Z,1.33
2023-06-24T00:10:51.649Z,0.90
2023-06-24T00:13:18.918Z,0.98
2023-06-24T00:15:45.986Z,1.10
2023-06-24T00:18:13.306Z,0.77
2023-06-24T00:20:44.280Z,0.80
2023-06-24T00:23:17.574Z,0.90
2023-06-24T00:25:44.768Z,0.80
2023-06-24T00:28:11.854Z,1.08
2023-06-24T00:30:38.860Z,0.90
2023-06-24T00:33:07.181Z,0.85
2023-06-24T00:35:34.306Z,0.70
2023-06-24T00:38:01.511Z,0.90
2023-06-24T00:40:29.337Z,1.00
2023-06-24T00:42:56.850Z,0.70
2023-06-24T00:45:24.386Z,1.00
2023-06-24T00:47:52.793Z,0.70
2023-06-24T00:50:19.899Z,0.80
2023-06-24T00:52:47.094Z,0.90
2023-06-24T00:55:17.143Z,0.93
2023-06-24T00:57:53.231Z,0.80
2023-06-24T01:00:23.900Z,0.80
2023-06-24T01:02:53.176Z,0.80
2023-06-24T01:05:24.644Z,1.10
2023-06-24T01:07:57.273Z,0.82
2023-06-24T01:10:25.480Z,0.93
2023-06-24T01:12:52.500Z,0.90
2023-06-24T01:15:21.780Z,1.10
2023-06-24T01:18:14.724Z,1.23
2023-06-24T01:21:00.053Z,1.00
2023-06-24T01:24:03.309Z,1.05
2023-06-24T01:27:03.447Z,1.35
2023-06-24T01:29:52.327Z,1.08
2023-06-24T01:32:37.840Z,1.02
2023-06-24T01:35:18.035Z,1.20
2023-06-24T01:38:00.076Z,1.08
2023-06-24T01:40:32.257Z,1.13
2023-06-24T01:43:04.481Z,1.20
2023-06-24T01:45:42.308Z,1.30
2023-06-24T01:48:14.767Z,1.23
2023-06-24T01:50:50.338Z,1.20
2023-06-24T01:55:47.281Z,1.08
2023-06-24T01:58:18.541Z,1.05
2023-06-24T02:00:45.939Z,1.13
2023-06-24T02:03:13.980Z,1.38
2023-06-24T02:05:42.852Z,1.25
2023-06-24T02:08:12.253Z,1.30
2023-06-24T02:10:40.830Z,1.02
2023-06-24T02:13:11.123Z,1.05
2023-06-24T02:15:40.898Z,1.65
2023-06-24T02:18:10.693Z,1.20
2023-06-24T02:20:40.188Z,1.30
2023-06-24T02:23:09.556Z,1.35
2023-06-24T02:25:40.117Z,0.90
2023-06-24T02:28:08.924Z,0.98
2023-06-24T02:30:40.179Z,1.10
2023-06-24T02:33:07.840Z,1.40
2023-06-24T02:35:35.523Z,1.38
2023-06-24T02:38:04.294Z,1.17
2023-06-24T02:40:33.764Z,1.15
2023-06-24T02:43:01.240Z,1.40
2023-06-24T02:45:29.467Z,1.10
2023-06-24T02:47:58.300Z,1.23
2023-06-24T02:50:26.700Z,1.25
2023-06-24T02:52:54.150Z,1.00
2023-06-24T02:55:22.082Z,1.20
2023-06-24T02:57:49.509Z,1.20
2023-06-24T03:00:17.803Z,1.30
2023-06-24T03:02:47.486Z,1.20
2023-06-24T03:05:16.671Z,1.17
2023-06-24T03:07:44.246Z,1.20
2023-06-24T03:10:11.944Z,1.30
2023-06-24T03:12:39.650Z,1.13
2023-06-24T03:15:07.408Z,1.00
2023-06-24T03:17:34.481Z,1.08
2023-06-24T03:20:01.599Z,0.93
2023-06-24T03:22:28.665Z,1.35
2023-06-24T03:24:55.701Z,1.00
2023-06-24T03:27:22.753Z,1.02
2023-06-24T03:29:49.797Z,0.95
2023-06-24T03:32:17.060Z,1.10
2023-06-24T03:34:44.123Z,1.25
2023-06-24T03:37:11.387Z,1.00
2023-06-24T03:39:38.482Z,1.00
2023-06-24T03:42:05.794Z,1.17
2023-06-24T03:44:32.817Z,1.00
2023-06-24T03:46:59.839Z,0.90
2023-06-24T03:49:26.869Z,0.80
2023-06-24T03:51:53.963Z,0.65
2023-06-24T03:54:21.021Z,1.00
2023-06-24T03:56:48.182Z,0.82
2023-06-24T03:59:15.695Z,0.75
2023-06-24T04:01:42.817Z,0.80
2023-06-24T04:04:10.075Z,0.88
2023-06-24T04:06:37.432Z,0.70
2023-06-24T04:09:04.676Z,0.65
2023-06-24T04:11:31.802Z,0.40
2023-06-24T04:13:58.842Z,0.70
2023-06-24T04:16:25.871Z,0.60
2023-06-24T04:18:52.905Z,0.30
2023-06-24T04:21:20.195Z,0.38
2023-06-24T04:23:47.251Z,0.40
2023-06-24T04:26:14.293Z,0.45
2023-06-24T04:28:41.350Z,0.30
2023-06-24T04:31:08.559Z,0.40
2023-06-24T04:33:35.660Z,0.30
2023-06-24T04:36:02.923Z,0.30
2023-06-24T04:38:29.965Z,0.40
2023-06-24T04:41:00.205Z,0.57
2023-06-24T04:43:30.504Z,0.30
2023-06-24T04:45:58.023Z,0.30
2023-06-24T04:48:25.813Z,0.10
2023-06-24T04:50:54.674Z,0.10
2023-06-24T04:53:22.772Z,0.25
2023-06-24T04:55:49.853Z,0.20
2023-06-24T04:58:16.984Z,0.40
2023-06-24T05:00:44.891Z,0.25
2023-06-24T05:03:12.115Z,0.25
2023-06-24T05:05:39.522Z,0.28
2023-06-24T05:08:06.903Z,0.25
2023-06-24T05:10:33.959Z,0.28
2023-06-24T05:13:00.998Z,0.15
2023-06-24T05:15:28.139Z,0.15
2023-06-24T05:17:56.830Z,0.10
2023-06-24T05:20:23.969Z,0.22
2023-06-24T05:22:51.202Z,0.20
2023-06-24T05:25:18.410Z,0.45
2023-06-24T05:27:45.659Z,0.20
2023-06-24T05:30:13.930Z,0.20
2023-06-24T05:32:41.579Z,0.10
2023-06-24T05:35:08.974Z,0.10
2023-06-24T05:37:36.096Z,0.17
2023-06-24T05:40:06.072Z,0.17
2023-06-24T05:42:34.825Z,0.10
2023-06-24T05:45:02.021Z,0.20
2023-06-24T05:47:29.192Z,0.20
2023-06-24T05:49:56.244Z,0.10
2023-06-24T05:52:23.264Z,0.10
2023-06-24T05:54:50.396Z,0.00
2023-06-24T05:57:17.484Z,0.10
2023-06-24T05:59:44.553Z,0.10
2023-06-24T06:02:11.667Z,0.13
2023-06-24T06:04:40.193Z,0.08
2023-06-24T06:07:07.394Z,0.10
2023-06-24T06:09:34.954Z,0.30
2023-06-24T06:12:02.030Z,0.20
2023-06-24T06:14:29.105Z,0.10
2023-06-24T06:16:56.223Z,0.20
2023-06-24T06:19:23.317Z,0.10
2023-06-24T06:21:53.396Z,0.20
2023-06-24T06:24:20.421Z,0.15
2023-06-24T06:26:48.094Z,0.20
2023-06-24T06:29:15.159Z,0.13
2023-06-24T06:31:42.221Z,0.10
2023-06-24T06:34:09.837Z,0.20
2023-06-24T06:36:37.325Z,0.20
2023-06-24T06:39:04.507Z,0.20
2023-06-24T06:41:31.635Z,0.10
2023-06-24T06:43:58.675Z,0.80
2023-06-24T06:46:25.909Z,0.05
2023-06-24T06:48:53.076Z,0.20
2023-06-24T06:51:20.193Z,0.20
2023-06-24T06:53:47.290Z,0.22
2023-06-24T06:56:28.756Z,0.30
2023-06-24T06:58:55.921Z,0.10
2023-06-24T07:01:23.067Z,0.10
2023-06-24T07:03:51.433Z,0.40
2023-06-24T07:06:21.627Z,0.32
2023-06-24T07:08:48.758Z,0.40
2023-06-24T07:11:15.918Z,0.30
2023-06-24T07:13:43.035Z,0.40
2023-06-24T07:16:10.170Z,0.40
2023-06-24T07:18:37.195Z,0.35
2023-06-24T07:21:04.624Z,0.47
2023-06-24T07:23:31.689Z,0.80
2023-06-24T07:26:00.009Z,0.60
2023-06-24T07:28:28.198Z,0.50
2023-06-24T07:30:55.270Z,0.68
2023-06-24T07:33:22.381Z,0.60
2023-06-24T07:35:49.541Z,0.82
2023-06-24T07:38:16.800Z,0.70
2023-06-24T07:40:43.872Z,0.80
2023-06-24T07:43:10.961Z,0.80
2023-06-24T07:45:38.105Z,0.70
2023-06-24T07:48:06.184Z,0.93
2023-06-24T07:50:33.830Z,0.60
2023-06-24T07:53:00.953Z,0.70
2023-06-24T07:55:27.995Z,0.80
2023-06-24T07:57:55.087Z,1.00
2023-06-24T08:00:22.230Z,0.90
2023-06-24T08:02:49.379Z,0.80
2023-06-24T08:05:19.598Z,0.98
2023-06-24T08:07:49.588Z,1.08
2023-06-24T08:10:20.067Z,1.02
2023-06-24T08:12:47.162Z,0.82
2023-06-24T08:15:14.307Z,1.02
2023-06-24T08:17:41.816Z,1.02
2023-06-24T08:20:09.610Z,1.00
2023-06-24T08:22:36.660Z,1.10
2023-06-24T08:25:03.978Z,0.85
2023-06-24T08:27:31.169Z,0.95
2023-06-24T08:29:58.224Z,1.30
2023-06-24T08:32:25.292Z,1.40
2023-06-24T08:34:52.389Z,1.50
2023-06-24T08:37:19.459Z,1.15
2023-06-24T08:39:46.681Z,1.27
2023-06-24T08:42:13.920Z,1.25
2023-06-24T08:44:40.960Z,1.80
2023-06-24T08:47:08.390Z,1.50
2023-06-24T08:49:47.664Z,1.13
2023-06-24T08:52:17.617Z,1.42
2023-06-24T08:54:51.899Z,1.65
2023-06-24T08:57:19.905Z,2.22
2023-06-24T08:59:47.502Z,1.27
2023-06-24T09:02:15.134Z,1.83
2023-06-24T09:04:42.993Z,1.58
2023-06-24T09:07:10.557Z,1.73
2023-06-24T09:09:45.848Z,2.20
2023-06-24T09:12:16.506Z,1.95
2023-06-24T09:14:50.064Z,1.90
2023-06-24T09:17:17.911Z,1.75
2023-06-24T09:19:45.354Z,2.28
2023-06-24T09:22:19.561Z,2.17
2023-06-24T09:24:48.973Z,1.88
2023-06-24T09:27:21.125Z,2.20
2023-06-24T09:29:48.379Z,2.13
2023-06-24T09:32:15.738Z,2.25
2023-06-24T09:34:42.808Z,2.33
2023-06-24T09:37:10.119Z,2.47
2023-06-24T09:39:41.654Z,2.70
2023-06-24T09:42:09.272Z,2.28
2023-06-24T09:44:36.742Z,2.17
2023-06-24T09:47:04.165Z,2.20
2023-06-24T09:49:31.410Z,1.83
2023-06-24T09:52:00.653Z,2.50
2023-06-24T09:54:33.822Z,2.13
2023-06-24T09:57:04.804Z,2.40
2023-06-24T09:59:34.860Z,2.50
2023-06-24T10:02:05.274Z,2.55
2023-06-24T10:04:33.651Z,2.30
2023-06-24T10:07:01.643Z,2.20
2023-06-24T10:09:29.010Z,1.90
2023-06-24T10:11:56.356Z,2.20
2023-06-24T10:14:23.485Z,2.17
2023-06-24T10:16:50.563Z,2.03
2023-06-24T10:19:24.503Z,1.52
2023-06-24T10:22:03.342Z,2.10
2023-06-24T10:24:36.990Z,2.00
2023-06-24T10:27:06.146Z,2.17
2023-06-24T10:29:33.947Z,2.08
2023-06-24T10:32:09.300Z,2.38
2023-06-24T10:34:47.309Z,2.83
2023-06-24T10:37:34.971Z,2.60
2023-06-24T10:40:04.108Z,3.03
2023-06-24T10:42:44.797Z,3.50
2023-06-24T10:45:15.071Z,3.03
2023-06-24T10:47:57.785Z,3.10
2023-06-24T10:50:25.216Z,3.53
2023-06-24T10:52:56.460Z,3.20
2023-06-24T10:55:27.149Z,3.63
2023-06-24T10:57:54.952Z,3.63
2023-06-24T11:00:22.565Z,3.72
2023-06-24T11:02:50.112Z,4.03
2023-06-24T11:05:17.342Z,3.83
2023-06-24T11:07:44.580Z,4.18
2023-06-24T11:10:16.603Z,4.03
2023-06-24T11:12:45.040Z,4.15
2023-06-24T11:15:14.922Z,3.92
2023-06-24T11:17:43.291Z,4.55
2023-06-24T11:20:15.146Z,4.15
2023-06-24T11:22:45.031Z,4.28
2023-06-24T11:25:22.819Z,4.63
2023-06-24T11:27:54.197Z,4.72
2023-06-24T11:30:21.519Z,4.65
2023-06-24T11:32:49.407Z,5.15
2023-06-24T11:35:18.014Z,4.30
2023-06-24T11:37:48.657Z,5.28
2023-06-24T11:40:20.697Z,5.55
2023-06-24T11:42:49.556Z,5.57
2023-06-24T11:45:23.410Z,4.93
2023-06-24T11:47:50.745Z,5.20
2023-06-24T11:50:17.842Z,5.55
2023-06-24T11:52:53.347Z,5.43
2023-06-24T11:58:03.513Z,6.35
2023-06-24T12:00:42.088Z,6.13
2023-06-24T12:03:12.322Z,7.07
2023-06-24T12:05:47.061Z,5.30
2023-06-24T12:08:16.838Z,5.83
2023-06-24T12:10:46.448Z,5.25
2023-06-24T12:13:13.728Z,5.35
2023-06-24T12:15:41.070Z,5.47
2023-06-24T12:18:08.712Z,4.85
2023-06-24T12:20:38.697Z,6.38
2023-06-24T12:23:07.028Z,10.05
2023-06-24T12:25:34.508Z,7.10
2023-06-24T12:28:01.689Z,9.25
2023-06-24T12:30:29.673Z,5.43
2023-06-24T12:32:57.005Z,5.80
2023-06-24T12:35:27.691Z,6.72
2023-06-24T12:37:55.226Z,5.47
2023-06-24T12:40:22.372Z,4.70
2023-06-24T12:42:49.521Z,5.30
2023-06-24T12:45:16.771Z,5.43
2023-06-24T12:47:46.817Z,5.53
2023-06-24T12:50:14.005Z,4.97
2023-06-24T12:52:41.198Z,5.78
2023-06-24T12:55:09.218Z,5.25
2023-06-24T12:57:37.490Z,4.85
2023-06-24T13:00:09.516Z,4.78
2023-06-24T13:02:37.271Z,4.78
2023-06-24T13:05:05.069Z,5.72
2023-06-24T13:07:33.034Z,4.75
2023-06-24T13:10:01.178Z,5.43
2023-06-24T13:12:28.558Z,5.32
2023-06-24T13:14:55.628Z,5.40
2023-06-24T13:17:22.771Z,5.32
2023-06-24T13:19:50.048Z,5.85
2023-06-24T13:22:17.310Z,5.50
2023-06-24T13:24:44.365Z,5.30
2023-06-24T13:27:11.781Z,5.18
2023-06-24T13:29:38.834Z,5.70
2023-06-24T13:32:06.423Z,4.82
2023-06-24T13:34:33.482Z,5.57
2023-06-24T13:37:00.574Z,5.45
2023-06-24T13:39:28.702Z,5.57
2023-06-24T13:41:57.498Z,5.55
2023-06-24T13:44:24.928Z,5.40
2023-06-24T13:46:54.659Z,5.10
2023-06-24T13:49:22.067Z,5.07
2023-06-24T13:51:50.170Z,5.82
2023-06-24T13:54:17.229Z,5.65
2023-06-24T13:56:45.566Z,5.10
2023-06-24T13:59:12.865Z,5.85
2023-06-24T14:01:40.004Z,5.60
2023-06-24T14:04:07.111Z,5.38
2023-06-24T14:06:34.470Z,5.45
2023-06-24T14:09:01.720Z,5.05
2023-06-24T14:11:28.819Z,5.75
2023-06-24T14:13:56.441Z,5.45
2023-06-24T14:16:23.825Z,5.53
2023-06-24T14:18:51.292Z,6.00
2023-06-24T14:21:18.495Z,5.28
2023-06-24T14:23:45.629Z,6.13
2023-06-24T14:26:12.692Z,6.45
2023-06-24T14:28:39.785Z,5.88
2023-06-24T14:31:06.948Z,5.95
2023-06-24T14:33:34.114Z,5.65
2023-06-24T14:36:01.178Z,6.25
2023-06-24T14:38:29.529Z,6.20
2023-06-24T14:40:58.384Z,5.75
2023-06-24T14:43:25.583Z,5.60
2023-06-24T14:45:52.789Z,5.80
2023-06-24T14:48:19.945Z,6.43
2023-06-24T14:50:47.009Z,5.38
2023-06-24T14:53:14.090Z,5.60
2023-06-24T14:55:41.158Z,6.15
2023-06-24T14:58:08.295Z,5.63
2023-06-24T15:00:35.582Z,5.93
2023-06-24T15:03:02.824Z,5.97
2023-06-24T15:05:30.058Z,5.90
2023-06-24T15:07:57.147Z,5.82
2023-06-24T15:10:24.447Z,5.82
2023-06-24T15:12:51.530Z,5.85
2023-06-24T15:15:19.143Z,5.75
2023-06-24T15:17:46.517Z,5.93
2023-06-24T15:20:14.106Z,6.00
2023-06-24T15:22:43.103Z,6.13
2023-06-24T15:25:10.808Z,5.50
2023-06-24T15:27:37.934Z,6.43
2023-06-24T15:30:05.973Z,6.15
2023-06-24T15:32:33.239Z,6.15
2023-06-24T15:35:05.002Z,5.85
2023-06-24T15:37:32.493Z,5.63
2023-06-24T15:39:59.564Z,6.35
2023-06-24T15:42:27.188Z,5.32
2023-06-24T15:44:54.380Z,6.13
2023-06-24T15:47:21.563Z,6.32
2023-06-24T15:49:49.009Z,6.38
2023-06-24T15:52:16.055Z,6.28
2023-06-24T15:54:43.684Z,5.85
2023-06-24T15:57:10.729Z,5.93
2023-06-24T15:59:39.034Z,5.65
2023-06-24T16:02:07.772Z,5.68
2023-06-24T16:04:34.808Z,5.68
2023-06-24T16:07:01.932Z,6.32
2023-06-24T16:09:30.044Z,5.32
2023-06-24T16:11:57.242Z,5.55
2023-06-24T16:14:24.705Z,5.97
2023-06-24T16:16:52.778Z,5.28
2023-06-24T16:19:20.468Z,5.68
2023-06-24T16:21:48.092Z,5.93
2023-06-24T16:24:15.144Z,6.05
2023-06-24T16:26:51.718Z,4.78
2023-06-24T16:29:20.044Z,5.53
2023-06-24T16:31:47.215Z,5.47
2023-06-24T16:34:23.282Z,5.20
2023-06-24T16:36:52.017Z,5.35
2023-06-24T16:39:19.929Z,4.50
2023-06-24T16:41:47.171Z,5.00
2023-06-24T16:44:14.421Z,5.18
2023-06-24T16:46:41.567Z,5.28
2023-06-24T16:49:08.775Z,4.80
2023-06-24T16:51:36.202Z,5.25
2023-06-24T16:54:04.091Z,5.03
2023-06-24T16:56:31.177Z,5.70
2023-06-24T16:58:58.259Z,5.32
2023-06-24T17:01:25.354Z,5.40
2023-06-24T17:03:52.765Z,5.38
2023-06-24T17:06:19.870Z,5.70
2023-06-24T17:08:46.938Z,5.00
2023-06-24T17:11:14.558Z,5.50
2023-06-24T17:13:42.257Z,5.45
2023-06-24T17:16:09.349Z,5.32
2023-06-24T17:18:36.554Z,5.63
2023-06-24T17:21:03.695Z,5.78
2023-06-24T17:23:30.840Z,6.30
2023-06-24T17:25:58.062Z,5.65
2023-06-24T17:28:25.489Z,5.50
2023-06-24T17:30:52.551Z,5.40
2023-06-24T17:33:19.751Z,5.80
2023-06-24T17:35:46.805Z,5.82
2023-06-24T17:38:13.890Z,5.63
2023-06-24T17:40:42.272Z,6.07
2023-06-24T17:43:09.514Z,5.72
2023-06-24T17:45:36.618Z,6.45
2023-06-24T17:48:04.051Z,6.57
2023-06-24T17:50:34.035Z,5.55
2023-06-24T17:53:01.748Z,5.43
2023-06-24T17:55:33.172Z,5.30
2023-06-24T17:58:00.413Z,5.70
2023-06-24T18:00:27.471Z,5.07
2023-06-24T18:02:54.606Z,5.25
2023-06-24T18:05:21.979Z,5.35
2023-06-24T18:07:50.026Z,5.20
2023-06-24T18:10:18.541Z,5.03
2023-06-24T18:12:45.899Z,5.47
2023-06-24T18:15:13.059Z,5.00
2023-06-24T18:17:40.157Z,4.85
2023-06-24T18:20:08.131Z,5.20
2023-06-24T18:22:36.581Z,5.40
2023-06-24T18:25:05.093Z,4.65
2023-06-24T18:27:32.674Z,4.65
2023-06-24T18:29:59.729Z,5.22
2023-06-24T18:32:26.879Z,5.38
2023-06-24T18:34:57.404Z,4.78
2023-06-24T18:37:24.849Z,5.28
2023-06-24T18:39:52.336Z,5.57
2023-06-24T18:42:19.480Z,6.00
2023-06-24T18:44:47.737Z,5.25
2023-06-24T18:47:14.800Z,5.28
2023-06-24T18:49:41.986Z,4.85
2023-06-24T18:52:09.992Z,5.15
2023-06-24T18:54:37.107Z,4.57
2023-06-24T18:57:04.643Z,4.97
2023-06-24T18:59:31.710Z,5.07
2023-06-24T19:01:58.816Z,4.80
2023-06-24T19:04:25.839Z,5.30
2023-06-24T19:06:53.048Z,4.53
2023-06-24T19:09:20.097Z,4.82
2023-06-24T19:11:47.628Z,4.63
2023-06-24T19:14:14.675Z,4.25
2023-06-24T19:16:41.845Z,4.32
2023-06-24T19:19:08.891Z,4.85
2023-06-24T19:21:36.070Z,4.68
2023-06-24T19:24:03.227Z,4.70
2023-06-24T19:26:30.298Z,5.05
2023-06-24T19:28:57.346Z,4.60
2023-06-24T19:31:24.507Z,5.05
2023-06-24T19:33:51.674Z,4.97
2023-06-24T19:36:18.700Z,4.43
2023-06-24T19:38:45.724Z,4.80
2023-06-24T19:41:12.817Z,5.18
2023-06-24T19:43:41.403Z,4.32
2023-06-24T19:46:08.508Z,5.13
2023-06-24T19:48:35.566Z,4.45
2023-06-24T19:51:02.675Z,4.40
2023-06-24T19:53:29.911Z,4.70
2023-06-24T19:55:57.217Z,4.70
2023-06-24T19:58:24.329Z,4.38
2023-06-24T20:00:51.459Z,4.68
2023-06-24T20:03:18.588Z,4.65
2023-06-24T20:05:45.890Z,4.25
2023-06-24T20:08:13.080Z,4.43
2023-06-24T20:10:40.150Z,4.90
2023-06-24T20:13:07.220Z,4.43
2023-06-24T20:15:34.366Z,4.30
2023-06-24T20:18:01.513Z,5.03
2023-06-24T20:20:28.565Z,4.45
2023-06-24T20:22:55.760Z,4.55
2023-06-24T20:25:22.834Z,4.70
2023-06-24T20:27:49.920Z,4.78
2023-06-24T20:30:17.207Z,5.05
2023-06-24T20:32:44.379Z,4.85
2023-06-24T20:35:11.461Z,5.05
2023-06-24T20:37:38.545Z,4.80
2023-06-24T20:40:06.742Z,4.80
2023-06-24T20:42:34.188Z,5.10
2023-06-24T20:45:01.455Z,5.05
2023-06-24T20:47:28.663Z,4.63
2023-06-24T20:49:56.067Z,4.85
2023-06-24T20:52:23.132Z,4.97
2023-06-24T20:54:50.167Z,5.00
2023-06-24T20:57:17.384Z,5.25
2023-06-24T20:59:46.316Z,5.28
2023-06-24T21:02:14.397Z,5.47
2023-06-24T21:04:41.471Z,4.82
2023-06-24T21:07:08.698Z,4.88
2023-06-24T21:09:35.950Z,5.53
2023-06-24T21:12:03.239Z,5.35
2023-06-24T21:14:30.311Z,5.03
2023-06-24T21:16:57.401Z,5.63
2023-06-24T21:19:24.470Z,5.45
2023-06-24T21:21:51.507Z,5.82
2023-06-24T21:24:18.672Z,5.65
2023-06-24T21:26:45.783Z,6.10
2023-06-24T21:29:12.867Z,5.82
2023-06-24T21:31:40.054Z,5.57
2023-06-24T21:34:07.173Z,5.53
2023-06-24T21:36:34.264Z,4.90
2023-06-24T21:39:01.410Z,5.05
2023-06-24T21:41:28.466Z,5.38
2023-06-24T21:43:57.087Z,5.10
2023-06-24T21:46:24.259Z,4.85
2023-06-24T21:48:51.437Z,5.50
2023-06-24T21:51:18.633Z,5.18
2023-06-24T21:53:45.681Z,4.80
2023-06-24T21:56:12.710Z,5.20
2023-06-24T21:58:39.805Z,5.43
2023-06-24T22:01:07.526Z,5.30
2023-06-24T22:03:34.595Z,4.72
2023-06-24T22:06:01.773Z,5.50
2023-06-24T22:08:28.881Z,5.13
2023-06-24T22:10:56.137Z,5.35
2023-06-24T22:13:23.170Z,5.25
2023-06-24T22:15:50.239Z,5.20
2023-06-24T22:18:17.371Z,5.60
2023-06-24T22:20:44.525Z,4.68
2023-06-24T22:23:12.939Z,4.72
2023-06-24T22:25:40.107Z,5.35
2023-06-24T22:28:07.164Z,5.35
2023-06-24T22:30:34.332Z,5.80
2023-06-24T22:33:01.713Z,5.40
2023-06-24T22:35:28.997Z,6.38
2023-06-24T22:37:56.088Z,5.35
2023-06-24T22:40:23.302Z,5.97
2023-06-24T22:42:50.323Z,5.88
2023-06-24T22:45:17.458Z,5.40
2023-06-24T22:47:44.516Z,5.25
2023-06-24T22:50:11.673Z,5.18
2023-06-24T22:52:38.871Z,5.55
2023-06-24T22:55:06.783Z,6.53
2023-06-24T22:57:33.941Z,5.70
2023-06-24T23:00:01.144Z,5.45
2023-06-24T23:02:28.541Z,5.05
2023-06-24T23:04:56.021Z,6.20
2023-06-24T23:07:24.570Z,5.40
2023-06-24T23:09:53.346Z,5.82
2023-06-24T23:12:22.413Z,5.85
2023-06-24T23:14:50.006Z,5.70
2023-06-24T23:17:22.069Z,5.45
2023-06-24T23:19:51.126Z,5.40
2023-06-24T23:22:21.373Z,5.78
2023-06-24T23:24:53.761Z,5.80
2023-06-24T23:27:23.168Z,5.25
2023-06-24T23:29:53.613Z,5.60
2023-06-24T23:32:20.972Z,6.03
2023-06-24T23:34:48.827Z,5.50
2023-06-24T23:37:16.780Z,4.93
2023-06-24T23:39:44.181Z,5.30
2023-06-24T23:42:12.148Z,5.32
2023-06-24T23:44:39.470Z,5.45
2023-06-24T23:47:07.800Z,5.13
2023-06-24T23:49:35.328Z,5.53
2023-06-24T23:52:02.439Z,5.47
2023-06-24T23:54:29.519Z,5.93
2023-06-24T23:56:57.003Z,5.97
2023-06-24T23:59:24.467Z,5.13
